This is the latest recevied weather packets stored in our database for station/object KB9PMA-1. If no packets are shown the sender has not sent any weather packets the latest 10 day(s).
| Time | Temp. | Humidity | Pressure | Rain* | Wind** | Luminosity | Snow |
|---|---|---|---|---|---|---|---|
| 1777839481 | 8.89° C | 91% | 1015.6 hPa | 3.3 mm | - | - | - |
| 1777839182 | 8.89° C | 90% | 1015.8 hPa | 3.05 mm | - | - | - |
| 1777838882 | 8.89° C | 90% | 1016.1 hPa | 2.79 mm | - | - | - |
| 1777838582 | 9.44° C | 89% | 1016.4 hPa | 2.29 mm | - | - | - |
| 1777838281 | 9.44° C | 87% | 1016.6 hPa | 1.78 mm | - | - | - |
| 1777837982 | 9.44° C | 86% | 1016.8 hPa | 1.27 mm | - | - | - |
| 1777837682 | 9.44° C | 85% | 1017.1 hPa | 1.02 mm | - | - | - |
| 1777837382 | 10° C | 84% | 1017.1 hPa | 0.76 mm | - | - | - |
| 1777837082 | 10.56° C | 83% | 1017.2 hPa | 0.51 mm | - | - | - |
| 1777836782 | 11.11° C | 77% | 1017 hPa | 0.25 mm | - | - | - |
| 1777836482 | 11.67° C | 73% | 1016.8 hPa | 0 mm | - | - | - |
| 1777836182 | 12.22° C | 67% | 1016.7 hPa | 0 mm | - | - | - |
| 1777835882 | 12.22° C | 64% | 1016.7 hPa | 0 mm | - | - | - |
| 1777835582 | 13.33° C | 61% | 1016.5 hPa | 0 mm | - | - | - |
| 1777835282 | 13.33° C | 57% | 1016.4 hPa | 0 mm | - | - | - |
| 1777834982 | 14.44° C | 53% | 1016.4 hPa | 0 mm | - | - | - |
| 1777834682 | 15° C | 49% | 1016 hPa | 0 mm | - | - | - |
| 1777834382 | 15° C | 47% | 1016 hPa | 0 mm | - | - | - |
| 1777834082 | 15° C | 47% | 1015.9 hPa | 0 mm | - | - | - |
| 1777833782 | 15° C | 49% | 1015.9 hPa | 0 mm | - | - | - |
| 1777833482 | 15° C | 48% | 1015.9 hPa | 0 mm | - | - | - |
| 1777833182 | 15° C | 47% | 1016 hPa | 0 mm | - | - | - |
| 1777832882 | 15.56° C | 49% | 1015.9 hPa | 0 mm | - | - | - |
| 1777832582 | 15.56° C | 46% | 1015.9 hPa | 0 mm | - | - | - |
| 1777832282 | 15.56° C | 47% | 1016 hPa | 0 mm | - | - | - |
* Rain latest hour (hover to see other rain measurements)
** Current wind speed in m/s (hover to see current wind gust speed)